sensor_id;sensor_type;location;lat;lon;timestamp;P1;durP1;ratioP1;P2;durP2;ratioP2
58864;SDS011;45702;52.982;6.658;2023-05-20T00:02:12;31.23;;;12.02;;
58864;SDS011;45702;52.982;6.658;2023-05-20T00:04:38;30.90;;;12.10;;
58864;SDS011;45702;52.982;6.658;2023-05-20T00:07:05;35.78;;;12.52;;
58864;SDS011;45702;52.982;6.658;2023-05-20T00:09:31;31.83;;;11.93;;
58864;SDS011;45702;52.982;6.658;2023-05-20T00:11:57;29.58;;;11.90;;
58864;SDS011;45702;52.982;6.658;2023-05-20T00:14:22;29.85;;;11.85;;
58864;SDS011;45702;52.982;6.658;2023-05-20T00:16:48;32.88;;;11.85;;
58864;SDS011;45702;52.982;6.658;2023-05-20T00:19:14;28.45;;;12.05;;
58864;SDS011;45702;52.982;6.658;2023-05-20T00:21:40;35.08;;;12.00;;
58864;SDS011;45702;52.982;6.658;2023-05-20T00:24:06;35.35;;;11.43;;
58864;SDS011;45702;52.982;6.658;2023-05-20T00:26:31;23.45;;;11.18;;
58864;SDS011;45702;52.982;6.658;2023-05-20T00:28:57;33.42;;;12.02;;
58864;SDS011;45702;52.982;6.658;2023-05-20T00:31:23;32.75;;;12.35;;
58864;SDS011;45702;52.982;6.658;2023-05-20T00:33:48;29.27;;;11.45;;
58864;SDS011;45702;52.982;6.658;2023-05-20T00:36:14;29.05;;;11.65;;
58864;SDS011;45702;52.982;6.658;2023-05-20T00:38:40;28.25;;;11.73;;
58864;SDS011;45702;52.982;6.658;2023-05-20T00:41:05;26.17;;;11.18;;
58864;SDS011;45702;52.982;6.658;2023-05-20T00:43:31;29.23;;;11.48;;
58864;SDS011;45702;52.982;6.658;2023-05-20T00:45:57;32.63;;;11.57;;
58864;SDS011;45702;52.982;6.658;2023-05-20T00:48:22;30.67;;;11.95;;
58864;SDS011;45702;52.982;6.658;2023-05-20T00:50:48;29.13;;;11.23;;
58864;SDS011;45702;52.982;6.658;2023-05-20T00:53:15;26.10;;;11.75;;
58864;SDS011;45702;52.982;6.658;2023-05-20T00:55:45;33.42;;;12.10;;
58864;SDS011;45702;52.982;6.658;2023-05-20T00:58:11;25.77;;;11.23;;
58864;SDS011;45702;52.982;6.658;2023-05-20T01:00:36;30.88;;;12.00;;
58864;SDS011;45702;52.982;6.658;2023-05-20T01:03:03;25.85;;;11.55;;
58864;SDS011;45702;52.982;6.658;2023-05-20T01:05:29;24.42;;;11.00;;
58864;SDS011;45702;52.982;6.658;2023-05-20T01:07:55;31.05;;;11.70;;
58864;SDS011;45702;52.982;6.658;2023-05-20T01:10:22;32.78;;;12.32;;
58864;SDS011;45702;52.982;6.658;2023-05-20T01:12:53;31.70;;;11.10;;
58864;SDS011;45702;52.982;6.658;2023-05-20T01:15:22;28.27;;;11.55;;
58864;SDS011;45702;52.982;6.658;2023-05-20T01:17:50;28.98;;;11.23;;
58864;SDS011;45702;52.982;6.658;2023-05-20T01:20:18;22.30;;;10.73;;
58864;SDS011;45702;52.982;6.658;2023-05-20T01:22:48;25.90;;;11.45;;
58864;SDS011;45702;52.982;6.658;2023-05-20T01:25:17;27.85;;;11.05;;
58864;SDS011;45702;52.982;6.658;2023-05-20T01:27:43;24.95;;;10.40;;
58864;SDS011;45702;52.982;6.658;2023-05-20T01:30:09;26.88;;;10.60;;
58864;SDS011;45702;52.982;6.658;2023-05-20T01:32:40;22.02;;;10.68;;
58864;SDS011;45702;52.982;6.658;2023-05-20T01:35:12;24.02;;;10.40;;
58864;SDS011;45702;52.982;6.658;2023-05-20T01:37:39;25.17;;;11.15;;
58864;SDS011;45702;52.982;6.658;2023-05-20T01:40:06;23.30;;;10.32;;
58864;SDS011;45702;52.982;6.658;2023-05-20T01:42:33;25.45;;;10.10;;
58864;SDS011;45702;52.982;6.658;2023-05-20T01:45:00;21.80;;;10.38;;
58864;SDS011;45702;52.982;6.658;2023-05-20T01:47:25;23.20;;;10.38;;
58864;SDS011;45702;52.982;6.658;2023-05-20T01:49:51;23.30;;;10.57;;
58864;SDS011;45702;52.982;6.658;2023-05-20T01:52:21;24.13;;;10.63;;
58864;SDS011;45702;52.982;6.658;2023-05-20T01:54:47;28.40;;;10.63;;
58864;SDS011;45702;52.982;6.658;2023-05-20T01:57:16;25.77;;;10.38;;
58864;SDS011;45702;52.982;6.658;2023-05-20T01:59:43;26.65;;;10.60;;
58864;SDS011;45702;52.982;6.658;2023-05-20T02:02:09;26.92;;;10.50;;
58864;SDS011;45702;52.982;6.658;2023-05-20T02:04:34;22.90;;;10.48;;
58864;SDS011;45702;52.982;6.658;2023-05-20T02:07:00;20.23;;;10.48;;
58864;SDS011;45702;52.982;6.658;2023-05-20T02:09:26;23.48;;;10.35;;
58864;SDS011;45702;52.982;6.658;2023-05-20T02:11:52;25.60;;;10.23;;
58864;SDS011;45702;52.982;6.658;2023-05-20T02:14:18;19.38;;;9.75;;
58864;SDS011;45702;52.982;6.658;2023-05-20T02:16:44;19.50;;;9.55;;
58864;SDS011;45702;52.982;6.658;2023-05-20T02:19:11;25.33;;;10.68;;
58864;SDS011;45702;52.982;6.658;2023-05-20T02:21:40;26.00;;;10.10;;
58864;SDS011;45702;52.982;6.658;2023-05-20T02:24:06;24.42;;;9.77;;
58864;SDS011;45702;52.982;6.658;2023-05-20T02:26:33;22.63;;;10.00;;
58864;SDS011;45702;52.982;6.658;2023-05-20T02:28:59;21.05;;;9.48;;
58864;SDS011;45702;52.982;6.658;2023-05-20T02:31:24;21.83;;;9.68;;
58864;SDS011;45702;52.982;6.658;2023-05-20T02:33:50;20.05;;;9.68;;
58864;SDS011;45702;52.982;6.658;2023-05-20T02:36:16;23.52;;;9.07;;
58864;SDS011;45702;52.982;6.658;2023-05-20T02:38:42;16.45;;;9.25;;
58864;SDS011;45702;52.982;6.658;2023-05-20T02:41:08;22.67;;;9.45;;
58864;SDS011;45702;52.982;6.658;2023-05-20T02:43:34;23.73;;;9.10;;
58864;SDS011;45702;52.982;6.658;2023-05-20T02:46:01;21.90;;;8.95;;
58864;SDS011;45702;52.982;6.658;2023-05-20T02:48:27;19.30;;;9.15;;
58864;SDS011;45702;52.982;6.658;2023-05-20T02:50:53;20.33;;;9.10;;
58864;SDS011;45702;52.982;6.658;2023-05-20T02:53:18;18.27;;;8.57;;
58864;SDS011;45702;52.982;6.658;2023-05-20T02:55:45;22.55;;;8.90;;
58864;SDS011;45702;52.982;6.658;2023-05-20T02:58:14;17.73;;;8.80;;
58864;SDS011;45702;52.982;6.658;2023-05-20T03:00:41;18.50;;;8.95;;
58864;SDS011;45702;52.982;6.658;2023-05-20T03:03:08;21.00;;;8.75;;
58864;SDS011;45702;52.982;6.658;2023-05-20T03:05:34;17.23;;;8.15;;
58864;SDS011;45702;52.982;6.658;2023-05-20T03:08:03;20.38;;;8.00;;
58864;SDS011;45702;52.982;6.658;2023-05-20T03:10:35;23.65;;;8.20;;
58864;SDS011;45702;52.982;6.658;2023-05-20T03:13:02;21.35;;;8.38;;
58864;SDS011;45702;52.982;6.658;2023-05-20T03:15:32;17.48;;;8.50;;
58864;SDS011;45702;52.982;6.658;2023-05-20T03:18:04;14.55;;;7.75;;
58864;SDS011;45702;52.982;6.658;2023-05-20T03:20:31;17.85;;;8.45;;
58864;SDS011;45702;52.982;6.658;2023-05-20T03:22:57;19.00;;;8.07;;
58864;SDS011;45702;52.982;6.658;2023-05-20T03:25:23;19.20;;;8.18;;
58864;SDS011;45702;52.982;6.658;2023-05-20T03:27:50;17.65;;;7.80;;
58864;SDS011;45702;52.982;6.658;2023-05-20T03:30:16;19.23;;;7.72;;
58864;SDS011;45702;52.982;6.658;2023-05-20T03:32:42;15.65;;;7.53;;
58864;SDS011;45702;52.982;6.658;2023-05-20T03:35:08;15.05;;;7.35;;
58864;SDS011;45702;52.982;6.658;2023-05-20T03:37:34;14.25;;;7.72;;
58864;SDS011;45702;52.982;6.658;2023-05-20T03:40:01;13.52;;;7.63;;
58864;SDS011;45702;52.982;6.658;2023-05-20T03:42:30;15.77;;;7.38;;
58864;SDS011;45702;52.982;6.658;2023-05-20T03:47:25;13.32;;;6.93;;
58864;SDS011;45702;52.982;6.658;2023-05-20T03:49:51;15.77;;;6.80;;
58864;SDS011;45702;52.982;6.658;2023-05-20T03:52:16;14.05;;;7.35;;
58864;SDS011;45702;52.982;6.658;2023-05-20T03:54:42;17.25;;;8.30;;
58864;SDS011;45702;52.982;6.658;2023-05-20T03:57:08;13.90;;;6.78;;
58864;SDS011;45702;52.982;6.658;2023-05-20T04:02:03;13.23;;;6.70;;
58864;SDS011;45702;52.982;6.658;2023-05-20T04:04:29;13.73;;;6.38;;
58864;SDS011;45702;52.982;6.658;2023-05-20T04:06:55;11.98;;;6.38;;
58864;SDS011;45702;52.982;6.658;2023-05-20T04:09:21;13.30;;;6.68;;
58864;SDS011;45702;52.982;6.658;2023-05-20T04:11:47;13.00;;;5.82;;
58864;SDS011;45702;52.982;6.658;2023-05-20T04:14:13;13.68;;;6.50;;
58864;SDS011;45702;52.982;6.658;2023-05-20T04:16:39;13.45;;;6.53;;
58864;SDS011;45702;52.982;6.658;2023-05-20T04:19:05;12.48;;;6.40;;
58864;SDS011;45702;52.982;6.658;2023-05-20T04:21:31;12.75;;;6.00;;
58864;SDS011;45702;52.982;6.658;2023-05-20T04:23:56;11.00;;;5.88;;
58864;SDS011;45702;52.982;6.658;2023-05-20T04:26:22;14.38;;;6.32;;
58864;SDS011;45702;52.982;6.658;2023-05-20T04:28:48;12.60;;;6.22;;
58864;SDS011;45702;52.982;6.658;2023-05-20T04:31:14;10.98;;;6.15;;
58864;SDS011;45702;52.982;6.658;2023-05-20T04:33:40;12.95;;;5.70;;
58864;SDS011;45702;52.982;6.658;2023-05-20T04:36:06;10.48;;;5.63;;
58864;SDS011;45702;52.982;6.658;2023-05-20T04:38:34;13.20;;;5.75;;
58864;SDS011;45702;52.982;6.658;2023-05-20T04:41:00;11.05;;;5.72;;
58864;SDS011;45702;52.982;6.658;2023-05-20T04:43:26;9.02;;;5.47;;
58864;SDS011;45702;52.982;6.658;2023-05-20T04:45:57;15.83;;;4.90;;
58864;SDS011;45702;52.982;6.658;2023-05-20T04:48:23;10.10;;;5.57;;
58864;SDS011;45702;52.982;6.658;2023-05-20T04:50:49;11.35;;;5.13;;
58864;SDS011;45702;52.982;6.658;2023-05-20T04:53:18;12.68;;;5.32;;
58864;SDS011;45702;52.982;6.658;2023-05-20T04:55:47;12.90;;;4.97;;
58864;SDS011;45702;52.982;6.658;2023-05-20T04:58:14;9.02;;;4.40;;
58864;SDS011;45702;52.982;6.658;2023-05-20T05:00:41;8.95;;;4.28;;
58864;SDS011;45702;52.982;6.658;2023-05-20T05:03:07;13.45;;;4.47;;
58864;SDS011;45702;52.982;6.658;2023-05-20T05:05:36;11.93;;;4.50;;
58864;SDS011;45702;52.982;6.658;2023-05-20T05:08:06;9.43;;;4.28;;
58864;SDS011;45702;52.982;6.658;2023-05-20T05:10:32;10.02;;;4.18;;
58864;SDS011;45702;52.982;6.658;2023-05-20T05:12:58;6.13;;;4.18;;
58864;SDS011;45702;52.982;6.658;2023-05-20T05:15:25;9.07;;;4.25;;
58864;SDS011;45702;52.982;6.658;2023-05-20T05:17:51;8.35;;;4.18;;
58864;SDS011;45702;52.982;6.658;2023-05-20T05:20:17;10.25;;;4.30;;
58864;SDS011;45702;52.982;6.658;2023-05-20T05:22:43;8.52;;;3.88;;
58864;SDS011;45702;52.982;6.658;2023-05-20T05:25:09;8.25;;;4.32;;
58864;SDS011;45702;52.982;6.658;2023-05-20T05:27:35;9.90;;;4.28;;
58864;SDS011;45702;52.982;6.658;2023-05-20T05:30:01;8.93;;;3.78;;
58864;SDS011;45702;52.982;6.658;2023-05-20T05:32:28;8.77;;;3.90;;
58864;SDS011;45702;52.982;6.658;2023-05-20T05:34:54;8.57;;;3.80;;
58864;SDS011;45702;52.982;6.658;2023-05-20T05:37:20;7.15;;;3.58;;
58864;SDS011;45702;52.982;6.658;2023-05-20T05:39:46;7.00;;;3.90;;
58864;SDS011;45702;52.982;6.658;2023-05-20T05:42:12;6.65;;;4.10;;
58864;SDS011;45702;52.982;6.658;2023-05-20T05:44:37;6.30;;;3.55;;
58864;SDS011;45702;52.982;6.658;2023-05-20T05:47:03;10.55;;;3.67;;
58864;SDS011;45702;52.982;6.658;2023-05-20T05:49:30;10.43;;;3.35;;
58864;SDS011;45702;52.982;6.658;2023-05-20T05:51:56;8.95;;;3.95;;
58864;SDS011;45702;52.982;6.658;2023-05-20T05:54:22;6.85;;;3.47;;
58864;SDS011;45702;52.982;6.658;2023-05-20T05:56:49;7.38;;;3.53;;
58864;SDS011;45702;52.982;6.658;2023-05-20T05:59:15;8.63;;;3.40;;
58864;SDS011;45702;52.982;6.658;2023-05-20T06:01:41;9.10;;;3.50;;
58864;SDS011;45702;52.982;6.658;2023-05-20T06:04:07;7.32;;;3.20;;
58864;SDS011;45702;52.982;6.658;2023-05-20T06:06:33;5.43;;;2.90;;
58864;SDS011;45702;52.982;6.658;2023-05-20T06:08:59;5.78;;;3.10;;
58864;SDS011;45702;52.982;6.658;2023-05-20T06:11:24;6.05;;;3.15;;
58864;SDS011;45702;52.982;6.658;2023-05-20T06:13:50;7.97;;;2.80;;
58864;SDS011;45702;52.982;6.658;2023-05-20T06:16:16;6.63;;;2.90;;
58864;SDS011;45702;52.982;6.658;2023-05-20T06:18:42;8.85;;;2.80;;
58864;SDS011;45702;52.982;6.658;2023-05-20T06:21:10;8.55;;;2.70;;
58864;SDS011;45702;52.982;6.658;2023-05-20T06:23:36;8.30;;;2.88;;
58864;SDS011;45702;52.982;6.658;2023-05-20T06:26:02;5.07;;;2.63;;
58864;SDS011;45702;52.982;6.658;2023-05-20T06:28:28;5.93;;;2.75;;
58864;SDS011;45702;52.982;6.658;2023-05-20T06:30:54;6.30;;;2.60;;
58864;SDS011;45702;52.982;6.658;2023-05-20T06:33:23;5.88;;;2.80;;
58864;SDS011;45702;52.982;6.658;2023-05-20T06:35:50;5.80;;;2.70;;
58864;SDS011;45702;52.982;6.658;2023-05-20T06:38:17;6.50;;;2.72;;
58864;SDS011;45702;52.982;6.658;2023-05-20T06:40:43;16.15;;;3.15;;
58864;SDS011;45702;52.982;6.658;2023-05-20T06:43:08;6.55;;;2.72;;
58864;SDS011;45702;52.982;6.658;2023-05-20T06:45:34;6.68;;;2.92;;
58864;SDS011;45702;52.982;6.658;2023-05-20T06:48:00;11.77;;;2.88;;
58864;SDS011;45702;52.982;6.658;2023-05-20T06:50:26;7.63;;;3.03;;
58864;SDS011;45702;52.982;6.658;2023-05-20T06:52:54;6.07;;;2.97;;
58864;SDS011;45702;52.982;6.658;2023-05-20T06:55:20;5.38;;;2.90;;
58864;SDS011;45702;52.982;6.658;2023-05-20T06:57:46;5.05;;;2.90;;
58864;SDS011;45702;52.982;6.658;2023-05-20T07:00:12;6.75;;;2.83;;
58864;SDS011;45702;52.982;6.658;2023-05-20T07:02:38;7.38;;;3.30;;
58864;SDS011;45702;52.982;6.658;2023-05-20T07:05:04;6.32;;;3.30;;
58864;SDS011;45702;52.982;6.658;2023-05-20T07:07:30;10.93;;;3.15;;
58864;SDS011;45702;52.982;6.658;2023-05-20T07:09:56;7.47;;;3.10;;
58864;SDS011;45702;52.982;6.658;2023-05-20T07:12:22;7.30;;;3.40;;
58864;SDS011;45702;52.982;6.658;2023-05-20T07:14:48;7.63;;;3.28;;
58864;SDS011;45702;52.982;6.658;2023-05-20T07:17:14;7.57;;;3.92;;
58864;SDS011;45702;52.982;6.658;2023-05-20T07:19:39;7.47;;;3.20;;
58864;SDS011;45702;52.982;6.658;2023-05-20T07:22:05;7.05;;;3.10;;
58864;SDS011;45702;52.982;6.658;2023-05-20T07:24:31;7.03;;;3.20;;
58864;SDS011;45702;52.982;6.658;2023-05-20T07:26:57;6.00;;;2.80;;
58864;SDS011;45702;52.982;6.658;2023-05-20T07:29:23;7.78;;;3.40;;
58864;SDS011;45702;52.982;6.658;2023-05-20T07:31:49;9.13;;;3.70;;
58864;SDS011;45702;52.982;6.658;2023-05-20T07:34:14;9.88;;;3.10;;
58864;SDS011;45702;52.982;6.658;2023-05-20T07:36:40;7.93;;;3.60;;
58864;SDS011;45702;52.982;6.658;2023-05-20T07:39:07;6.75;;;3.50;;
58864;SDS011;45702;52.982;6.658;2023-05-20T07:41:35;9.43;;;3.60;;
58864;SDS011;45702;52.982;6.658;2023-05-20T07:44:02;10.55;;;3.95;;
58864;SDS011;45702;52.982;6.658;2023-05-20T07:46:29;5.33;;;3.50;;
58864;SDS011;45702;52.982;6.658;2023-05-20T07:48:55;8.32;;;3.60;;
58864;SDS011;45702;52.982;6.658;2023-05-20T07:51:21;10.65;;;4.45;;
58864;SDS011;45702;52.982;6.658;2023-05-20T07:53:47;8.57;;;3.88;;
58864;SDS011;45702;52.982;6.658;2023-05-20T07:56:12;8.32;;;3.30;;
58864;SDS011;45702;52.982;6.658;2023-05-20T07:58:41;6.85;;;4.03;;
58864;SDS011;45702;52.982;6.658;2023-05-20T08:01:07;8.05;;;4.30;;
58864;SDS011;45702;52.982;6.658;2023-05-20T08:03:34;8.93;;;4.28;;
58864;SDS011;45702;52.982;6.658;2023-05-20T08:06:01;9.25;;;4.30;;
58864;SDS011;45702;52.982;6.658;2023-05-20T08:08:27;8.10;;;3.80;;
58864;SDS011;45702;52.982;6.658;2023-05-20T08:10:54;7.50;;;4.13;;
58864;SDS011;45702;52.982;6.658;2023-05-20T08:13:20;7.72;;;4.15;;
58864;SDS011;45702;52.982;6.658;2023-05-20T08:15:46;8.40;;;3.78;;
58864;SDS011;45702;52.982;6.658;2023-05-20T08:18:13;10.75;;;3.97;;
58864;SDS011;45702;52.982;6.658;2023-05-20T08:20:40;7.43;;;3.70;;
58864;SDS011;45702;52.982;6.658;2023-05-20T08:23:06;6.70;;;4.10;;
58864;SDS011;45702;52.982;6.658;2023-05-20T08:25:32;10.90;;;4.53;;
58864;SDS011;45702;52.982;6.658;2023-05-20T08:28:00;9.95;;;4.10;;
58864;SDS011;45702;52.982;6.658;2023-05-20T08:30:28;8.45;;;4.10;;
58864;SDS011;45702;52.982;6.658;2023-05-20T08:32:54;7.25;;;3.75;;
58864;SDS011;45702;52.982;6.658;2023-05-20T08:35:20;6.97;;;3.85;;
58864;SDS011;45702;52.982;6.658;2023-05-20T08:37:47;8.38;;;3.97;;
58864;SDS011;45702;52.982;6.658;2023-05-20T08:40:13;9.88;;;4.57;;
58864;SDS011;45702;52.982;6.658;2023-05-20T08:42:39;7.88;;;3.80;;
58864;SDS011;45702;52.982;6.658;2023-05-20T08:45:08;7.35;;;4.38;;
58864;SDS011;45702;52.982;6.658;2023-05-20T08:47:36;11.85;;;4.75;;
58864;SDS011;45702;52.982;6.658;2023-05-20T08:50:05;9.35;;;4.40;;
58864;SDS011;45702;52.982;6.658;2023-05-20T08:52:33;9.27;;;4.38;;
58864;SDS011;45702;52.982;6.658;2023-05-20T08:55:01;10.30;;;4.57;;
58864;SDS011;45702;52.982;6.658;2023-05-20T08:57:28;7.43;;;4.55;;
58864;SDS011;45702;52.982;6.658;2023-05-20T08:59:54;11.43;;;4.45;;
58864;SDS011;45702;52.982;6.658;2023-05-20T09:02:21;9.48;;;3.97;;
58864;SDS011;45702;52.982;6.658;2023-05-20T09:04:47;11.38;;;4.68;;
58864;SDS011;45702;52.982;6.658;2023-05-20T09:07:12;9.55;;;4.47;;
58864;SDS011;45702;52.982;6.658;2023-05-20T09:09:38;7.43;;;3.97;;
58864;SDS011;45702;52.982;6.658;2023-05-20T09:12:05;8.63;;;4.40;;
58864;SDS011;45702;52.982;6.658;2023-05-20T09:14:31;10.73;;;4.25;;
58864;SDS011;45702;52.982;6.658;2023-05-20T09:16:56;10.90;;;4.15;;
58864;SDS011;45702;52.982;6.658;2023-05-20T09:19:23;7.97;;;4.60;;
58864;SDS011;45702;52.982;6.658;2023-05-20T09:21:51;8.20;;;4.20;;
58864;SDS011;45702;52.982;6.658;2023-05-20T09:24:24;10.00;;;4.50;;
58864;SDS011;45702;52.982;6.658;2023-05-20T09:26:50;12.45;;;4.13;;
58864;SDS011;45702;52.982;6.658;2023-05-20T09:29:16;8.27;;;3.90;;
58864;SDS011;45702;52.982;6.658;2023-05-20T09:31:45;7.38;;;3.72;;
58864;SDS011;45702;52.982;6.658;2023-05-20T09:34:12;6.38;;;3.40;;
58864;SDS011;45702;52.982;6.658;2023-05-20T09:36:38;9.27;;;4.47;;
58864;SDS011;45702;52.982;6.658;2023-05-20T09:39:04;17.15;;;5.00;;
58864;SDS011;45702;52.982;6.658;2023-05-20T09:41:38;8.02;;;4.30;;
58864;SDS011;45702;52.982;6.658;2023-05-20T09:44:13;10.55;;;3.92;;
58864;SDS011;45702;52.982;6.658;2023-05-20T09:46:40;6.70;;;3.72;;
58864;SDS011;45702;52.982;6.658;2023-05-20T09:49:08;10.27;;;4.20;;
58864;SDS011;45702;52.982;6.658;2023-05-20T09:51:35;8.75;;;3.72;;
58864;SDS011;45702;52.982;6.658;2023-05-20T09:54:01;12.00;;;3.90;;
58864;SDS011;45702;52.982;6.658;2023-05-20T09:56:28;5.32;;;3.78;;
58864;SDS011;45702;52.982;6.658;2023-05-20T09:58:56;8.18;;;3.80;;
58864;SDS011;45702;52.982;6.658;2023-05-20T10:01:23;7.28;;;3.70;;
58864;SDS011;45702;52.982;6.658;2023-05-20T10:03:49;10.30;;;4.28;;
58864;SDS011;45702;52.982;6.658;2023-05-20T10:20:25;6.97;;;3.40;;
58864;SDS011;45702;52.982;6.658;2023-05-20T10:22:55;8.73;;;3.83;;
58864;SDS011;45702;52.982;6.658;2023-05-20T10:25:27;6.78;;;3.00;;
58864;SDS011;45702;52.982;6.658;2023-05-20T10:30:56;10.57;;;3.50;;
58864;SDS011;45702;52.982;6.658;2023-05-20T10:33:23;8.73;;;3.65;;
58864;SDS011;45702;52.982;6.658;2023-05-20T10:35:53;9.70;;;3.85;;
58864;SDS011;45702;52.982;6.658;2023-05-20T10:38:22;13.20;;;3.67;;
58864;SDS011;45702;52.982;6.658;2023-05-20T10:40:48;9.52;;;3.38;;
58864;SDS011;45702;52.982;6.658;2023-05-20T10:43:15;8.77;;;3.92;;
58864;SDS011;45702;52.982;6.658;2023-05-20T10:45:56;9.85;;;3.97;;
58864;SDS011;45702;52.982;6.658;2023-05-20T10:48:27;9.60;;;3.83;;
58864;SDS011;45702;52.982;6.658;2023-05-20T10:51:02;6.05;;;3.92;;
58864;SDS011;45702;52.982;6.658;2023-05-20T10:53:40;13.13;;;3.90;;
58864;SDS011;45702;52.982;6.658;2023-05-20T10:56:15;10.15;;;4.20;;
58864;SDS011;45702;52.982;6.658;2023-05-20T10:58:43;8.63;;;3.80;;
58864;SDS011;45702;52.982;6.658;2023-05-20T11:01:09;6.85;;;3.70;;
58864;SDS011;45702;52.982;6.658;2023-05-20T11:03:35;10.35;;;4.10;;
58864;SDS011;45702;52.982;6.658;2023-05-20T11:06:01;9.40;;;3.65;;
58864;SDS011;45702;52.982;6.658;2023-05-20T11:08:35;8.45;;;3.70;;
58864;SDS011;45702;52.982;6.658;2023-05-20T11:11:01;9.32;;;3.90;;
58864;SDS011;45702;52.982;6.658;2023-05-20T11:13:27;6.38;;;3.53;;
58864;SDS011;45702;52.982;6.658;2023-05-20T11:15:52;7.60;;;4.10;;
58864;SDS011;45702;52.982;6.658;2023-05-20T11:18:18;7.63;;;3.78;;
58864;SDS011;45702;52.982;6.658;2023-05-20T11:20:44;9.48;;;3.80;;
58864;SDS011;45702;52.982;6.658;2023-05-20T11:23:11;10.20;;;3.70;;
58864;SDS011;45702;52.982;6.658;2023-05-20T11:25:38;4.40;;;3.20;;
58864;SDS011;45702;52.982;6.658;2023-05-20T11:28:03;8.88;;;3.78;;
58864;SDS011;45702;52.982;6.658;2023-05-20T11:30:34;8.57;;;3.85;;
58864;SDS011;45702;52.982;6.658;2023-05-20T11:33:01;7.57;;;3.53;;
58864;SDS011;45702;52.982;6.658;2023-05-20T11:35:28;7.65;;;3.92;;
58864;SDS011;45702;52.982;6.658;2023-05-20T11:38:04;8.68;;;3.75;;
58864;SDS011;45702;52.982;6.658;2023-05-20T11:40:33;7.07;;;3.50;;
58864;SDS011;45702;52.982;6.658;2023-05-20T11:43:00;6.85;;;3.72;;
58864;SDS011;45702;52.982;6.658;2023-05-20T11:45:27;5.28;;;3.60;;
58864;SDS011;45702;52.982;6.658;2023-05-20T11:48:04;6.65;;;3.45;;
58864;SDS011;45702;52.982;6.658;2023-05-20T11:50:34;9.32;;;3.63;;
58864;SDS011;45702;52.982;6.658;2023-05-20T11:53:03;7.47;;;3.13;;
58864;SDS011;45702;52.982;6.658;2023-05-20T11:55:31;6.63;;;3.07;;
58864;SDS011;45702;52.982;6.658;2023-05-20T11:58:00;7.47;;;3.33;;
58864;SDS011;45702;52.982;6.658;2023-05-20T12:00:27;9.57;;;3.45;;
58864;SDS011;45702;52.982;6.658;2023-05-20T12:02:53;8.60;;;3.20;;
58864;SDS011;45702;52.982;6.658;2023-05-20T12:05:18;6.97;;;2.67;;
58864;SDS011;45702;52.982;6.658;2023-05-20T12:07:44;7.07;;;3.00;;
58864;SDS011;45702;52.982;6.658;2023-05-20T12:10:10;6.32;;;3.00;;
58864;SDS011;45702;52.982;6.658;2023-05-20T12:12:37;7.18;;;3.53;;
58864;SDS011;45702;52.982;6.658;2023-05-20T12:15:03;9.18;;;3.25;;
58864;SDS011;45702;52.982;6.658;2023-05-20T12:17:46;6.63;;;3.25;;
58864;SDS011;45702;52.982;6.658;2023-05-20T12:20:16;8.88;;;3.53;;
58864;SDS011;45702;52.982;6.658;2023-05-20T12:22:44;7.38;;;3.22;;
58864;SDS011;45702;52.982;6.658;2023-05-20T12:25:10;10.02;;;3.80;;
58864;SDS011;45702;52.982;6.658;2023-05-20T12:27:38;9.38;;;3.08;;
58864;SDS011;45702;52.982;6.658;2023-05-20T12:30:06;8.05;;;3.45;;
58864;SDS011;45702;52.982;6.658;2023-05-20T12:32:34;7.10;;;3.50;;
58864;SDS011;45702;52.982;6.658;2023-05-20T12:35:02;5.88;;;3.33;;
58864;SDS011;45702;52.982;6.658;2023-05-20T12:37:28;8.25;;;3.25;;
58864;SDS011;45702;52.982;6.658;2023-05-20T12:39:54;8.82;;;3.60;;
58864;SDS011;45702;52.982;6.658;2023-05-20T12:42:20;6.80;;;3.47;;
58864;SDS011;45702;52.982;6.658;2023-05-20T12:44:45;11.63;;;4.10;;
58864;SDS011;45702;52.982;6.658;2023-05-20T12:47:11;9.40;;;3.70;;
58864;SDS011;45702;52.982;6.658;2023-05-20T12:49:37;9.23;;;3.65;;
58864;SDS011;45702;52.982;6.658;2023-05-20T12:52:02;9.40;;;3.35;;
58864;SDS011;45702;52.982;6.658;2023-05-20T12:54:28;8.35;;;3.58;;
58864;SDS011;45702;52.982;6.658;2023-05-20T12:56:54;13.00;;;4.18;;
58864;SDS011;45702;52.982;6.658;2023-05-20T12:59:20;8.98;;;3.72;;
58864;SDS011;45702;52.982;6.658;2023-05-20T13:01:45;8.60;;;3.40;;
58864;SDS011;45702;52.982;6.658;2023-05-20T13:04:12;13.10;;;3.20;;
58864;SDS011;45702;52.982;6.658;2023-05-20T13:06:37;5.88;;;3.20;;
58864;SDS011;45702;52.982;6.658;2023-05-20T13:09:03;6.35;;;3.22;;
58864;SDS011;45702;52.982;6.658;2023-05-20T13:11:28;8.38;;;3.22;;
58864;SDS011;45702;52.982;6.658;2023-05-20T13:13:54;6.82;;;3.17;;
58864;SDS011;45702;52.982;6.658;2023-05-20T13:16:23;7.85;;;2.97;;
58864;SDS011;45702;52.982;6.658;2023-05-20T13:18:49;9.38;;;3.47;;
58864;SDS011;45702;52.982;6.658;2023-05-20T13:21:15;19.08;;;3.05;;
58864;SDS011;45702;52.982;6.658;2023-05-20T13:23:41;7.85;;;2.42;;
58864;SDS011;45702;52.982;6.658;2023-05-20T13:26:07;8.32;;;2.80;;
58864;SDS011;45702;52.982;6.658;2023-05-20T13:28:33;7.00;;;2.72;;
58864;SDS011;45702;52.982;6.658;2023-05-20T13:31:00;5.28;;;2.85;;
58864;SDS011;45702;52.982;6.658;2023-05-20T13:33:27;6.57;;;2.88;;
58864;SDS011;45702;52.982;6.658;2023-05-20T13:35:53;7.68;;;2.95;;
58864;SDS011;45702;52.982;6.658;2023-05-20T13:38:18;9.27;;;3.60;;
58864;SDS011;45702;52.982;6.658;2023-05-20T13:40:44;8.63;;;3.92;;
58864;SDS011;45702;52.982;6.658;2023-05-20T13:43:10;10.43;;;3.67;;
58864;SDS011;45702;52.982;6.658;2023-05-20T13:45:36;8.85;;;3.60;;
58864;SDS011;45702;52.982;6.658;2023-05-20T13:48:02;6.80;;;3.70;;
58864;SDS011;45702;52.982;6.658;2023-05-20T13:50:27;8.23;;;3.40;;
58864;SDS011;45702;52.982;6.658;2023-05-20T13:52:53;16.83;;;4.18;;
58864;SDS011;45702;52.982;6.658;2023-05-20T13:55:19;14.88;;;3.60;;
58864;SDS011;45702;52.982;6.658;2023-05-20T13:57:45;8.65;;;3.63;;
58864;SDS011;45702;52.982;6.658;2023-05-20T14:00:11;7.85;;;3.25;;
58864;SDS011;45702;52.982;6.658;2023-05-20T14:02:37;10.00;;;3.42;;
58864;SDS011;45702;52.982;6.658;2023-05-20T14:05:04;11.45;;;3.30;;
58864;SDS011;45702;52.982;6.658;2023-05-20T14:07:31;9.05;;;3.53;;
58864;SDS011;45702;52.982;6.658;2023-05-20T14:09:57;9.02;;;3.00;;
58864;SDS011;45702;52.982;6.658;2023-05-20T14:12:23;10.35;;;3.42;;
58864;SDS011;45702;52.982;6.658;2023-05-20T14:14:48;17.10;;;3.85;;
58864;SDS011;45702;52.982;6.658;2023-05-20T14:17:14;8.60;;;3.40;;
58864;SDS011;45702;52.982;6.658;2023-05-20T14:19:40;7.47;;;3.60;;
58864;SDS011;45702;52.982;6.658;2023-05-20T14:22:05;8.18;;;3.30;;
58864;SDS011;45702;52.982;6.658;2023-05-20T14:24:31;8.68;;;3.22;;
58864;SDS011;45702;52.982;6.658;2023-05-20T14:26:57;7.00;;;3.25;;
58864;SDS011;45702;52.982;6.658;2023-05-20T14:29:23;10.63;;;3.78;;
58864;SDS011;45702;52.982;6.658;2023-05-20T14:31:48;8.23;;;3.08;;
58864;SDS011;45702;52.982;6.658;2023-05-20T14:34:14;7.18;;;3.33;;
58864;SDS011;45702;52.982;6.658;2023-05-20T14:36:40;9.35;;;3.58;;
58864;SDS011;45702;52.982;6.658;2023-05-20T14:39:06;7.28;;;3.65;;
58864;SDS011;45702;52.982;6.658;2023-05-20T14:41:32;10.65;;;3.35;;
58864;SDS011;45702;52.982;6.658;2023-05-20T14:43:57;10.27;;;3.38;;
58864;SDS011;45702;52.982;6.658;2023-05-20T14:46:23;12.75;;;3.88;;
58864;SDS011;45702;52.982;6.658;2023-05-20T14:48:49;8.88;;;3.55;;
58864;SDS011;45702;52.982;6.658;2023-05-20T14:51:14;9.88;;;3.67;;
58864;SDS011;45702;52.982;6.658;2023-05-20T14:53:40;7.45;;;3.95;;
58864;SDS011;45702;52.982;6.658;2023-05-20T14:56:06;7.88;;;4.00;;
58864;SDS011;45702;52.982;6.658;2023-05-20T14:58:31;5.63;;;3.65;;
58864;SDS011;45702;52.982;6.658;2023-05-20T15:00:57;8.68;;;3.80;;